Time,TemperatureF,DewpointF,PressureIn,WindDirection,WindDirectionDegrees,WindSpeedMPH,WindSpeedGustMPH,Humidity,HourlyPrecipIn,Conditions,Clouds,dailyrainin,SoftwareType,DateUTC
2013-04-17 11:23:00,68.9,28.5,30.02,West,260,0.0,7.0,22,0.00,,---,0.00,VWS V12.07,2013-04-17 18:23:00,
2013-04-17 11:25:00,69.8,29.3,30.02,NW,321,9.0,9.0,22,0.00,,---,0.00,VWS V12.07,2013-04-17 18:25:00,
2013-04-17 11:30:00,68.8,26.1,30.02,West,264,0.0,7.0,20,0.00,,---,0.00,VWS V12.07,2013-04-17 18:30:00,
2013-04-17 17:29:00,68.6,20.6,29.98,NW,324,9.0,9.0,16,0.00,,---,0.00,VWS V12.07,2013-04-18 00:29:00,
2013-04-17 17:35:00,68.6,20.6,29.98,NW,311,9.0,18.0,16,0.00,,---,0.00,VWS V12.07,2013-04-18 00:35:00,
2013-04-17 17:40:00,68.1,18.7,29.99,North,11,14.0,16.0,15,0.00,,---,0.00,VWS V12.07,2013-04-18 00:40:00,
2013-04-17 17:45:00,67.9,20.1,29.99,North,351,6.0,11.0,16,0.00,,---,0.00,VWS V12.07,2013-04-18 00:45:00,
2013-04-17 17:55:00,67.8,20.0,30.00,NNW,340,11.0,11.0,16,0.00,,---,0.00,VWS V12.07,2013-04-18 00:55:00,
2013-04-17 18:00:00,67.6,19.9,30.00,North,349,7.0,11.0,16,0.00,,---,0.00,VWS V12.07,2013-04-18 01:00:00,
2013-04-17 18:05:00,67.6,19.9,30.00,NW,321,5.0,9.0,16,0.00,,---,0.00,VWS V12.07,2013-04-18 01:05:00,
2013-04-17 18:15:00,67.4,19.7,30.00,NNW,337,11.0,12.0,16,0.00,,---,0.00,VWS V12.07,2013-04-18 01:15:00,
2013-04-17 18:25:00,67.3,21.0,30.01,NNW,338,7.0,8.0,17,0.00,,---,0.00,VWS V12.07,2013-04-18 01:25:00,
2013-04-17 18:30:00,67.3,21.0,30.01,North,355,6.0,6.0,17,0.00,,---,0.00,VWS V12.07,2013-04-18 01:30:00,
2013-04-17 18:40:00,66.8,20.6,30.01,North,5,6.0,11.0,17,0.00,,---,0.00,VWS V12.07,2013-04-18 01:40:00,
2013-04-17 18:50:00,66.1,20.0,30.01,NNW,327,6.0,6.0,17,0.00,,---,0.00,VWS V12.07,2013-04-18 01:50:00,
2013-04-17 18:55:00,65.6,21.0,30.01,NNE,19,2.0,5.0,18,0.00,,---,0.00,VWS V12.07,2013-04-18 01:55:00,
2013-04-17 19:05:00,64.8,21.6,30.01,NNE,15,3.0,5.0,19,0.00,,---,0.00,VWS V12.07,2013-04-18 02:05:00,
2013-04-17 19:10:00,64.5,21.4,30.01,NNW,340,5.0,6.0,19,0.00,,---,0.00,VWS V12.07,2013-04-18 02:10:00,
2013-04-17 19:15:00,64.3,21.2,30.01,North,5,0.0,4.0,19,0.00,,---,0.00,VWS V12.07,2013-04-18 02:15:00,
2013-04-17 19:25:00,63.4,22.8,30.02,North,355,1.0,2.0,21,0.00,,---,0.00,VWS V12.07,2013-04-18 02:25:00,
2013-04-17 19:30:00,63.1,21.4,30.02,NNE,29,1.0,7.0,20,0.00,,---,0.00,VWS V12.07,2013-04-18 02:30:00,
2013-04-17 19:35:00,62.9,21.2,30.02,North,355,0.0,4.0,20,0.00,,---,0.00,VWS V12.07,2013-04-18 02:35:00,
2013-04-17 19:40:00,62.6,21.0,30.03,North,11,0.0,1.0,20,0.00,,---,0.00,VWS V12.07,2013-04-18 02:40:00,
2013-04-17 19:45:00,62.3,21.9,30.03,North,360,0.0,1.0,21,0.00,,---,0.00,VWS V12.07,2013-04-18 02:45:00,
2013-04-17 19:55:00,62.0,20.5,30.03,North,360,0.0,0.0,20,0.00,,---,0.00,VWS V12.07,2013-04-18 02:55:00,
2013-04-17 20:00:00,61.8,20.3,30.03,ENE,69,0.0,0.0,20,0.00,,---,0.00,VWS V12.07,2013-04-18 03:00:00,
2013-04-17 20:05:00,61.6,20.2,30.03,NNW,336,2.0,4.0,20,0.00,,---,0.00,VWS V12.07,2013-04-18 03:05:00,
2013-04-17 20:10:00,62.0,19.3,30.03,NNW,346,1.0,4.0,19,0.00,,---,0.00,VWS V12.07,2013-04-18 03:10:00,
2013-04-17 20:15:00,61.8,20.3,30.03,NW,311,0.0,1.0,20,0.00,,---,0.00,VWS V12.07,2013-04-18 03:15:00,
2013-04-17 20:25:00,60.7,21.7,30.03,NW,311,0.0,2.0,22,0.00,,---,0.00,VWS V12.07,2013-04-18 03:25:00,
2013-04-17 20:30:00,59.9,22.0,30.03,NW,311,0.0,0.0,23,0.00,,---,0.00,VWS V12.07,2013-04-18 03:30:00,
2013-04-17 20:35:00,58.9,21.2,30.03,NNE,12,0.0,1.0,23,0.00,,---,0.00,VWS V12.07,2013-04-18 03:35:00,
2013-04-17 20:40:00,58.4,21.8,30.04,NNE,12,0.0,0.0,24,0.00,,---,0.00,VWS V12.07,2013-04-18 03:40:00,
2013-04-17 20:50:00,57.3,21.8,30.04,NNE,12,0.0,1.0,25,0.00,,---,0.00,VWS V12.07,2013-04-18 03:50:00,
2013-04-17 20:55:00,56.9,23.3,30.05,NNE,12,0.0,1.0,27,0.00,,---,0.00,VWS V12.07,2013-04-18 03:55:00,
2013-04-17 21:00:00,56.7,22.2,30.05,NNE,12,0.0,0.0,26,0.00,,---,0.00,VWS V12.07,2013-04-18 04:00:00,
2013-04-17 21:05:00,56.3,22.8,30.05,NNE,12,0.0,1.0,27,0.00,,---,0.00,VWS V12.07,2013-04-18 04:05:00,
2013-04-17 21:10:00,56.0,23.4,30.05,NNE,12,0.0,1.0,28,0.00,,---,0.00,VWS V12.07,2013-04-18 04:10:00,
2013-04-17 21:15:00,55.7,23.1,30.05,NNE,12,0.0,1.0,28,0.00,,---,0.00,VWS V12.07,2013-04-18 04:15:00,